Time;durP1;ratioP1;P1;durP2;ratioP2;P2;SDS_P1;SDS_P2;PMS_P1;PMS_P2;Temp;Humidity;BMP_temperature;BMP_pressure;BME280_temperature;BME280_humidity;BME280_pressure;Samples;Min_cycle;Max_cycle;Signal;HPM_P1;HPM_P2
2020/12/04 00:00:08;;;;;;;18.53;12.90;;;3.20;99.90;;;;;;5077894;28;20415;-71
2020/12/04 00:02:34;;;;;;;16.37;12.63;;;3.20;99.90;;;;;;5074166;28;20466;-71
2020/12/04 00:05:01;;;;;;;18.73;13.50;;;3.10;99.90;;;;;;5074250;28;20792;-71
2020/12/04 00:07:28;;;;;;;22.47;14.73;;;3.10;99.90;;;;;;5074161;28;20934;-71
2020/12/04 00:09:54;;;;;;;21.30;12.93;;;3.00;99.90;;;;;;5074166;28;20435;-70
2020/12/04 00:12:21;;;;;;;22.77;14.20;;;3.00;99.90;;;;;;5074356;28;20964;-71
2020/12/04 00:14:48;;;;;;;17.23;13.60;;;3.00;99.90;;;;;;5074278;28;20461;-71
2020/12/04 00:17:16;;;;;;;19.13;14.00;;;3.00;99.90;;;;;;5074005;28;20466;-71
2020/12/04 00:19:43;;;;;;;17.93;12.87;;;3.00;99.90;;;;;;5073914;28;20423;-71
2020/12/04 00:22:09;;;;;;;21.70;15.40;;;2.90;99.90;;;;;;5073685;28;20505;-71
2020/12/04 00:24:36;;;;;;;17.03;12.57;;;3.00;99.90;;;;;;5073955;28;20427;-71
2020/12/04 00:27:03;;;;;;;17.67;13.60;;;3.00;99.90;;;;;;5073706;28;20489;-71
2020/12/04 00:29:29;;;;;;;21.27;14.40;;;3.00;99.90;;;;;;5073114;28;20434;-71
2020/12/04 00:31:56;;;;;;;24.57;14.97;;;3.00;99.90;;;;;;5073083;28;20466;-71
2020/12/04 00:34:24;;;;;;;20.87;13.83;;;2.90;99.90;;;;;;5073857;28;20454;-71
2020/12/04 00:36:51;;;;;;;19.70;12.10;;;2.90;99.90;;;;;;5073530;28;20471;-71
2020/12/04 00:39:18;;;;;;;20.50;14.80;;;2.90;99.90;;;;;;5073588;28;20436;-71
2020/12/04 00:41:45;;;;;;;23.10;14.80;;;2.90;99.90;;;;;;5073370;28;20478;-71
2020/12/04 00:44:11;;;;;;;21.80;14.57;;;2.80;99.90;;;;;;5073390;28;20435;-71
2020/12/04 00:46:38;;;;;;;20.10;13.80;;;2.90;99.90;;;;;;5073377;28;20521;-71
2020/12/04 00:49:05;;;;;;;22.03;13.47;;;2.90;99.90;;;;;;5073291;28;20428;-71
2020/12/04 00:51:33;;;;;;;20.10;14.20;;;2.80;99.90;;;;;;5073073;28;20974;-71
2020/12/04 00:53:59;;;;;;;20.20;14.17;;;2.70;99.90;;;;;;5073139;28;20496;-71
2020/12/04 00:56:31;;;;;;;24.20;16.00;;;2.70;99.90;;;;;;5073175;28;20467;-71
2020/12/04 00:58:58;;;;;;;16.90;12.80;;;2.70;99.90;;;;;;5073389;28;20505;-71
2020/12/04 01:01:24;;;;;;;19.47;14.10;;;2.60;99.90;;;;;;5073099;28;20534;-71
2020/12/04 01:03:51;;;;;;;21.63;15.03;;;2.70;99.90;;;;;;5072598;28;20435;-71
2020/12/04 01:06:17;;;;;;;18.17;14.93;;;2.70;99.90;;;;;;5072912;28;20928;-71
2020/12/04 01:08:45;;;;;;;20.30;14.37;;;2.70;99.90;;;;;;5072679;28;20439;-71
2020/12/04 01:11:11;;;;;;;19.43;14.53;;;2.70;99.90;;;;;;5072755;28;20446;-71
2020/12/04 01:13:38;;;;;;;20.73;16.60;;;2.80;99.90;;;;;;5071796;28;20422;-71
2020/12/04 01:16:09;;;;;;;20.50;14.50;;;2.70;99.90;;;;;;5072835;28;20270;-71
2020/12/04 01:18:36;;;;;;;21.93;15.00;;;2.70;99.90;;;;;;5072922;28;20701;-71
2020/12/04 01:21:02;;;;;;;22.10;14.73;;;2.80;99.90;;;;;;5072358;28;20440;-71
2020/12/04 01:23:29;;;;;;;22.40;15.33;;;2.80;99.90;;;;;;5072804;28;20461;-71
2020/12/04 01:25:56;;;;;;;20.23;14.37;;;2.80;99.90;;;;;;5073052;28;20834;-71
2020/12/04 01:28:23;;;;;;;17.13;12.80;;;2.80;99.90;;;;;;5075181;28;20505;-71
2020/12/04 01:30:49;;;;;;;15.53;12.90;;;2.80;99.90;;;;;;5081918;28;20447;-72
2020/12/04 01:33:16;;;;;;;20.13;14.93;;;2.80;99.90;;;;;;5075814;28;20718;-71
2020/12/04 01:35:42;;;;;;;21.83;13.93;;;2.80;99.90;;;;;;5072130;28;20471;-71
2020/12/04 01:38:09;;;;;;;17.50;13.17;;;2.80;99.90;;;;;;5072459;28;20428;-71
2020/12/04 01:40:35;;;;;;;21.03;16.53;;;2.80;99.90;;;;;;5072123;28;20508;-71
2020/12/04 01:43:03;;;;;;;17.60;13.57;;;2.80;99.90;;;;;;5072197;28;20814;-71
2020/12/04 01:45:34;;;;;;;19.70;13.50;;;2.80;99.90;;;;;;5072255;28;20517;-71
2020/12/04 01:48:01;;;;;;;21.43;13.60;;;2.80;99.90;;;;;;5072155;28;20474;-71
2020/12/04 01:50:28;;;;;;;19.87;12.73;;;2.80;99.90;;;;;;5072162;28;20809;-71
2020/12/04 01:52:55;;;;;;;18.97;14.57;;;2.80;99.90;;;;;;5072554;28;20964;-71
2020/12/04 01:55:22;;;;;;;15.50;12.80;;;2.80;99.90;;;;;;5072018;28;20924;-71
2020/12/04 01:57:48;;;;;;;18.87;13.17;;;2.80;99.90;;;;;;5072106;28;20435;-71
2020/12/04 02:00:16;;;;;;;18.90;13.37;;;2.90;99.90;;;;;;5071769;28;20793;-71
2020/12/04 02:02:43;;;;;;;19.70;14.07;;;2.90;99.90;;;;;;5072208;28;20471;-71
2020/12/04 02:05:10;;;;;;;16.50;12.53;;;2.90;99.90;;;;;;5071813;28;20511;-71
2020/12/04 02:07:46;;;;;;;15.50;11.57;;;2.90;99.90;;;;;;5071579;28;20435;-71
2020/12/04 02:10:18;;;;;;;17.40;13.40;;;2.90;99.90;;;;;;5071372;28;20512;-71
2020/12/04 02:12:46;;;;;;;17.87;12.67;;;3.00;99.90;;;;;;5071405;28;20477;-71
2020/12/04 02:15:13;;;;;;;17.30;13.47;;;3.00;99.90;;;;;;5071345;28;20475;-71
2020/12/04 02:17:41;;;;;;;21.37;14.43;;;3.00;99.90;;;;;;5071276;28;20435;-71
2020/12/04 02:20:11;;;;;;;16.77;12.97;;;3.00;99.90;;;;;;5071070;28;20450;-71
2020/12/04 02:22:39;;;;;;;19.13;13.87;;;3.00;99.90;;;;;;5071398;28;20512;-71
2020/12/04 02:25:08;;;;;;;20.43;14.70;;;2.90;99.90;;;;;;5071200;28;20454;-71
2020/12/04 02:27:35;;;;;;;17.33;13.10;;;2.90;99.90;;;;;;5071073;28;20447;-71
2020/12/04 02:30:03;;;;;;;20.80;14.27;;;2.90;99.90;;;;;;5071058;28;20435;-71
2020/12/04 02:32:30;;;;;;;16.60;11.80;;;2.90;99.90;;;;;;5071382;28;20471;-71
2020/12/04 02:34:56;;;;;;;19.30;13.37;;;2.80;99.90;;;;;;5071241;28;20431;-71
2020/12/04 02:37:23;;;;;;;18.70;14.40;;;2.90;99.90;;;;;;5071209;28;20489;-71
2020/12/04 02:39:50;;;;;;;18.83;13.40;;;2.90;99.90;;;;;;5073924;28;20439;-71
2020/12/04 02:42:17;;;;;;;16.20;13.00;;;2.80;99.90;;;;;;5073621;28;20504;-71
2020/12/04 02:44:43;;;;;;;21.20;13.90;;;2.70;99.90;;;;;;5074475;28;20435;-71
2020/12/04 02:47:10;;;;;;;19.53;14.10;;;2.70;99.90;;;;;;5071801;28;20466;-71
2020/12/04 02:49:37;;;;;;;19.17;13.90;;;2.70;99.90;;;;;;5072264;28;20431;-71
2020/12/04 02:52:03;;;;;;;16.47;12.40;;;2.80;99.90;;;;;;5071661;28;20509;-71
2020/12/04 02:54:30;;;;;;;20.97;14.33;;;2.80;99.90;;;;;;5070753;28;20431;-71
2020/12/04 02:56:57;;;;;;;19.13;13.73;;;2.80;99.90;;;;;;5071867;28;20470;-71
2020/12/04 02:59:24;;;;;;;16.07;12.47;;;2.80;99.90;;;;;;5081520;28;20837;-71
2020/12/04 03:01:50;;;;;;;18.73;12.77;;;2.70;99.90;;;;;;5071058;28;20455;-71
2020/12/04 03:04:17;;;;;;;15.90;12.07;;;2.80;99.90;;;;;;5071095;28;20439;-70
2020/12/04 03:06:43;;;;;;;20.00;13.77;;;2.70;99.90;;;;;;5071170;28;20439;-71
2020/12/04 03:09:10;;;;;;;19.73;13.10;;;2.70;99.90;;;;;;5071224;28;20435;-71
2020/12/04 03:11:36;;;;;;;19.07;13.93;;;2.70;99.90;;;;;;5070849;28;20455;-71
2020/12/04 03:14:04;;;;;;;17.60;11.90;;;2.70;99.90;;;;;;5071378;28;20439;-71
2020/12/04 03:16:30;;;;;;;17.63;12.90;;;2.80;99.90;;;;;;5070894;28;20470;-71
2020/12/04 03:18:57;;;;;;;17.07;12.83;;;2.70;99.90;;;;;;5070850;28;20439;-71
2020/12/04 03:21:23;;;;;;;18.60;12.97;;;2.70;99.90;;;;;;5070787;28;20821;-71
2020/12/04 03:23:50;;;;;;;18.80;12.70;;;2.70;99.90;;;;;;5071222;28;20435;-71
2020/12/04 03:26:16;;;;;;;17.57;12.37;;;2.60;99.90;;;;;;5070928;28;20439;-71
2020/12/04 03:28:43;;;;;;;15.73;11.13;;;2.70;99.90;;;;;;5071009;28;20450;-71
2020/12/04 03:31:10;;;;;;;18.70;14.00;;;2.60;99.90;;;;;;5070465;28;20993;-71
2020/12/04 03:33:37;;;;;;;19.70;13.93;;;2.70;99.90;;;;;;5070979;28;20489;-71
2020/12/04 03:36:03;;;;;;;21.13;14.30;;;2.80;99.90;;;;;;5070578;28;20482;-71
2020/12/04 03:38:30;;;;;;;17.33;12.83;;;2.80;99.90;;;;;;5070904;28;20435;-71
2020/12/04 03:40:56;;;;;;;17.63;13.63;;;2.80;99.90;;;;;;5070891;28;20492;-71
2020/12/04 03:43:23;;;;;;;16.40;12.40;;;2.80;99.90;;;;;;5070727;28;20924;-71
2020/12/04 03:45:49;;;;;;;21.60;13.50;;;2.80;99.90;;;;;;5070657;28;20493;-71
2020/12/04 03:48:17;;;;;;;20.20;12.90;;;2.80;99.90;;;;;;5070741;28;20777;-71
2020/12/04 03:50:43;;;;;;;19.40;13.87;;;2.90;99.90;;;;;;5070088;28;20439;-71
2020/12/04 03:53:10;;;;;;;16.50;12.47;;;2.80;99.90;;;;;;5070553;28;20940;-71
2020/12/04 03:55:37;;;;;;;14.50;11.90;;;2.80;99.90;;;;;;5070946;28;20831;-71
2020/12/04 03:58:03;;;;;;;19.00;12.87;;;2.80;99.90;;;;;;5070893;28;20437;-71
2020/12/04 04:00:30;;;;;;;19.53;12.80;;;2.80;99.90;;;;;;5070619;28;20428;-71
2020/12/04 04:02:56;;;;;;;19.73;13.90;;;2.80;99.90;;;;;;5070618;28;20447;-71
2020/12/04 04:05:24;;;;;;;16.93;12.57;;;2.80;99.90;;;;;;5071752;28;20924;-71
2020/12/04 04:07:51;;;;;;;21.17;13.90;;;2.70;99.90;;;;;;5074171;28;20446;-71
2020/12/04 04:10:18;;;;;;;19.27;13.80;;;2.70;99.90;;;;;;5073833;28;20869;-71
2020/12/04 04:12:44;;;;;;;18.80;13.00;;;2.70;99.90;;;;;;5074257;28;20520;-71
2020/12/04 04:15:11;;;;;;;18.87;12.40;;;2.80;99.90;;;;;;5073926;28;20477;-71
2020/12/04 04:17:37;;;;;;;18.30;12.27;;;2.70;99.90;;;;;;5074088;28;20474;-71
2020/12/04 04:20:05;;;;;;;17.47;13.53;;;2.70;99.90;;;;;;5073748;28;20428;-71
2020/12/04 04:22:32;;;;;;;22.20;14.90;;;2.70;99.90;;;;;;5073784;28;20483;-71
2020/12/04 04:24:59;;;;;;;19.00;13.87;;;2.70;99.90;;;;;;5073912;28;20451;-71
2020/12/04 04:27:25;;;;;;;17.70;13.37;;;2.70;99.90;;;;;;5073707;28;20447;-71
2020/12/04 04:29:52;;;;;;;17.17;12.73;;;2.70;99.90;;;;;;5073783;28;20500;-71
2020/12/04 04:32:18;;;;;;;20.97;15.40;;;2.80;99.90;;;;;;5074110;28;20447;-71
2020/12/04 04:34:45;;;;;;;21.23;14.70;;;2.90;99.90;;;;;;5073766;28;20431;-71
2020/12/04 04:37:12;;;;;;;19.03;13.50;;;2.90;99.90;;;;;;5073777;28;20471;-71
2020/12/04 04:39:42;;;;;;;20.87;14.13;;;2.90;99.90;;;;;;5073663;28;20427;-71
2020/12/04 04:42:10;;;;;;;19.77;12.80;;;2.90;99.90;;;;;;5073501;28;20867;-71
2020/12/04 04:44:38;;;;;;;21.77;15.47;;;3.00;99.90;;;;;;5073441;28;20439;-71
2020/12/04 04:47:05;;;;;;;18.97;13.10;;;3.10;99.90;;;;;;5073449;28;20782;-71
2020/12/04 04:49:36;;;;;;;21.30;14.00;;;3.10;99.90;;;;;;5073115;28;20447;-71
2020/12/04 04:52:06;;;;;;;17.40;12.30;;;3.20;99.90;;;;;;5072800;28;20944;-71
2020/12/04 04:54:35;;;;;;;15.50;12.23;;;3.20;99.90;;;;;;5073465;28;20427;-71
2020/12/04 04:57:03;;;;;;;17.50;13.30;;;3.20;99.90;;;;;;5073279;28;20851;-71
2020/12/04 04:59:30;;;;;;;18.83;13.97;;;3.10;99.90;;;;;;5073290;28;20428;-71
2020/12/04 05:01:56;;;;;;;16.03;12.63;;;3.10;99.90;;;;;;5072772;28;21029;-71
2020/12/04 05:04:23;;;;;;;18.40;13.33;;;3.10;99.90;;;;;;5073223;28;20439;-71
2020/12/04 05:06:49;;;;;;;21.80;14.67;;;3.10;99.90;;;;;;5073052;28;20443;-71
2020/12/04 05:09:17;;;;;;;18.20;12.67;;;3.10;99.90;;;;;;5072983;28;20438;-71
2020/12/04 05:11:59;;;;;;;20.90;15.47;;;3.10;99.90;;;;;;5072757;28;20792;-71
2020/12/04 05:14:27;;;;;;;21.37;14.03;;;3.00;99.90;;;;;;5072771;28;20526;-71
2020/12/04 05:16:55;;;;;;;22.53;15.93;;;3.10;99.90;;;;;;5071938;28;20483;-71
2020/12/04 05:19:32;;;;;;;22.30;14.30;;;3.10;99.90;;;;;;5073057;28;20950;-71
2020/12/04 05:22:08;;;;;;;21.10;15.83;;;3.10;99.90;;;;;;5072478;28;20790;-71
2020/12/04 05:24:35;;;;;;;22.37;14.53;;;3.10;99.90;;;;;;5073253;28;20780;-71
2020/12/04 05:27:03;;;;;;;18.53;14.53;;;3.10;99.90;;;;;;5072378;28;20442;-71
2020/12/04 05:29:37;;;;;;;19.00;13.97;;;3.20;99.90;;;;;;5072606;28;20453;-71
2020/12/04 05:32:14;;;;;;;20.03;14.57;;;3.20;99.90;;;;;;5072251;28;20478;-71
2020/12/04 05:34:40;;;;;;;19.73;14.27;;;3.20;99.90;;;;;;5072376;28;20439;-72
2020/12/04 05:37:08;;;;;;;19.83;15.83;;;3.20;99.90;;;;;;5072196;28;20470;-71
2020/12/04 05:39:41;;;;;;;19.70;14.40;;;3.20;99.90;;;;;;5071616;28;20481;-71
2020/12/04 05:42:08;;;;;;;22.23;14.63;;;3.30;99.90;;;;;;5071558;28;20530;-71
2020/12/04 05:44:35;;;;;;;20.60;14.53;;;3.30;99.90;;;;;;5071816;28;20451;-71
2020/12/04 05:47:03;;;;;;;19.97;14.73;;;3.30;99.90;;;;;;5072056;28;20439;-71
2020/12/04 05:49:42;;;;;;;20.03;13.53;;;3.30;99.90;;;;;;5071826;28;20431;-71
2020/12/04 05:52:08;;;;;;;22.13;14.23;;;3.20;99.90;;;;;;5071004;28;20550;-71
2020/12/04 05:54:35;;;;;;;16.83;13.00;;;3.20;99.90;;;;;;5071631;28;20439;-71
2020/12/04 05:57:02;;;;;;;17.93;12.97;;;3.30;99.90;;;;;;5071711;28;20471;-71
2020/12/04 05:59:29;;;;;;;19.27;13.40;;;3.30;99.90;;;;;;5071668;28;20463;-71
2020/12/04 06:01:57;;;;;;;20.60;13.97;;;3.30;99.90;;;;;;5071228;28;20458;-71
2020/12/04 06:04:25;;;;;;;17.33;13.70;;;3.40;99.90;;;;;;5069159;28;20424;-71
2020/12/04 06:06:51;;;;;;;19.43;14.03;;;3.40;99.90;;;;;;5067608;28;20534;-71
2020/12/04 06:09:21;;;;;;;21.90;14.30;;;3.40;99.90;;;;;;5069540;28;20447;-71
2020/12/04 06:11:47;;;;;;;17.23;14.30;;;3.50;99.90;;;;;;5050075;28;20448;-71
2020/12/04 06:14:15;;;;;;;20.10;13.30;;;3.40;99.90;;;;;;5050485;28;20490;-71
2020/12/04 06:16:42;;;;;;;23.47;15.03;;;3.50;99.90;;;;;;5049735;28;21011;-71
2020/12/04 06:19:28;;;;;;;17.30;12.90;;;3.50;99.90;;;;;;5050930;28;20770;-71
2020/12/04 06:22:04;;;;;;;17.87;13.40;;;3.40;99.90;;;;;;5050403;28;20482;-71
2020/12/04 06:24:31;;;;;;;19.20;13.00;;;3.50;99.90;;;;;;5051951;28;20877;-71
2020/12/04 06:26:58;;;;;;;19.17;13.20;;;3.40;99.90;;;;;;5051518;28;20455;-71
2020/12/04 06:29:24;;;;;;;18.20;13.10;;;3.50;99.90;;;;;;5050923;28;20486;-71
2020/12/04 06:31:51;;;;;;;16.50;12.60;;;3.40;99.90;;;;;;5050899;28;20457;-71
2020/12/04 06:34:19;;;;;;;16.43;12.53;;;3.40;99.90;;;;;;5051038;28;20452;-69
2020/12/04 06:36:48;;;;;;;16.70;12.07;;;3.50;99.90;;;;;;5050924;28;20467;-69
2020/12/04 06:39:31;;;;;;;17.40;11.77;;;3.60;99.90;;;;;;5051316;28;20432;-69
2020/12/04 06:41:57;;;;;;;16.70;11.20;;;3.60;99.90;;;;;;5050808;28;20452;-69
2020/12/04 06:44:25;;;;;;;15.50;10.97;;;3.50;99.90;;;;;;5050997;28;20475;-69
2020/12/04 06:46:55;;;;;;;14.37;11.57;;;3.50;99.90;;;;;;5051321;28;20841;-72
2020/12/04 06:49:35;;;;;;;17.83;12.87;;;3.60;99.90;;;;;;5051077;28;20474;-70
2020/12/04 06:52:14;;;;;;;18.60;12.70;;;3.60;99.90;;;;;;5056973;28;20487;-70
2020/12/04 06:54:42;;;;;;;16.57;12.70;;;3.60;99.90;;;;;;5071228;28;20450;-70
2020/12/04 06:57:09;;;;;;;17.30;12.53;;;3.60;99.90;;;;;;5071113;28;20536;-70
2020/12/04 06:59:38;;;;;;;25.93;15.30;;;3.60;99.90;;;;;;5070935;28;20820;-70
2020/12/04 07:02:07;;;;;;;17.43;13.00;;;3.60;99.90;;;;;;5070962;28;20482;-71
2020/12/04 07:04:34;;;;;;;18.30;14.07;;;3.70;99.90;;;;;;5071203;28;20447;-70
2020/12/04 07:07:20;;;;;;;24.60;15.63;;;3.60;99.90;;;;;;5071017;28;20439;-71
2020/12/04 07:09:54;;;;;;;24.20;15.00;;;3.60;99.90;;;;;;5070926;28;20873;-70
2020/12/04 07:12:21;;;;;;;16.70;12.70;;;3.60;99.90;;;;;;5071253;28;20501;-70
2020/12/04 07:14:49;;;;;;;16.77;12.23;;;3.70;99.90;;;;;;5071350;28;20434;-71
2020/12/04 07:17:17;;;;;;;18.10;12.90;;;3.80;99.90;;;;;;5070965;28;20471;-71
2020/12/04 07:19:47;;;;;;;20.80;12.60;;;3.90;99.90;;;;;;5071918;28;20509;-70
2020/12/04 07:22:15;;;;;;;18.67;12.70;;;3.90;99.90;;;;;;5070901;28;20452;-70
2020/12/04 07:24:43;;;;;;;17.80;13.00;;;3.80;99.90;;;;;;5070366;28;20471;-70
2020/12/04 07:27:13;;;;;;;19.10;12.60;;;3.80;99.90;;;;;;5070815;28;20447;-70
2020/12/04 07:29:40;;;;;;;20.20;13.77;;;3.80;99.90;;;;;;5071116;28;20466;-70
2020/12/04 07:32:07;;;;;;;17.63;11.53;;;3.90;99.90;;;;;;5070720;28;20447;-71
2020/12/04 07:34:36;;;;;;;15.67;12.30;;;3.80;99.90;;;;;;5071247;28;20439;-70
2020/12/04 07:37:03;;;;;;;18.43;12.90;;;3.80;99.90;;;;;;5072568;28;20473;-70
2020/12/04 07:39:31;;;;;;;17.80;12.60;;;3.90;99.90;;;;;;5072309;28;20474;-70
2020/12/04 07:42:00;;;;;;;21.27;12.27;;;3.90;99.90;;;;;;5074613;28;20455;-71
2020/12/04 07:44:28;;;;;;;15.70;12.43;;;4.00;99.90;;;;;;5074942;28;20459;-71
2020/12/04 07:47:07;;;;;;;18.57;13.53;;;4.00;99.90;;;;;;5074739;28;20450;-71
2020/12/04 07:49:35;;;;;;;15.70;12.30;;;4.00;99.90;;;;;;5074668;28;20443;-71
2020/12/04 07:52:10;;;;;;;15.37;12.00;;;4.00;99.90;;;;;;5074348;28;20455;-70
2020/12/04 07:54:37;;;;;;;15.43;12.13;;;4.00;99.90;;;;;;5074701;28;20438;-71
2020/12/04 07:57:05;;;;;;;17.90;13.33;;;4.00;99.90;;;;;;5074429;28;20471;-70
2020/12/04 07:59:34;;;;;;;18.80;13.90;;;4.00;99.90;;;;;;5074492;28;20538;-70
2020/12/04 08:02:01;;;;;;;16.47;12.77;;;4.10;99.90;;;;;;5074101;28;20467;-70
2020/12/04 08:04:28;;;;;;;18.57;14.27;;;4.10;99.90;;;;;;5074355;28;20434;-70
2020/12/04 08:07:08;;;;;;;17.73;12.63;;;4.20;99.90;;;;;;5074431;28;20439;-70
2020/12/04 08:09:40;;;;;;;15.23;12.07;;;4.40;99.90;;;;;;5074123;28;20796;-70
2020/12/04 08:12:12;;;;;;;17.83;14.80;;;4.40;99.90;;;;;;5068583;28;20970;-71
2020/12/04 08:14:41;;;;;;;19.33;13.47;;;4.40;99.90;;;;;;5071322;28;20446;-70
2020/12/04 08:17:08;;;;;;;17.43;13.40;;;4.40;99.90;;;;;;5067935;28;20544;-71
2020/12/04 08:19:36;;;;;;;15.23;12.83;;;4.50;99.90;;;;;;5072831;28;20490;-70
2020/12/04 08:22:05;;;;;;;19.97;13.27;;;4.60;99.90;;;;;;5069689;28;20455;-71
2020/12/04 08:24:34;;;;;;;21.63;12.87;;;4.70;99.90;;;;;;5072929;28;20781;-70
2020/12/04 08:27:05;;;;;;;17.30;12.40;;;4.70;99.90;;;;;;5073737;28;20447;-70
2020/12/04 08:29:33;;;;;;;20.83;13.20;;;4.70;99.90;;;;;;5071998;28;20921;-71
2020/12/04 08:32:19;;;;;;;13.73;12.00;;;4.60;99.90;;;;;;5071820;28;20475;-71
2020/12/04 08:34:45;;;;;;;20.33;12.80;;;4.60;99.90;;;;;;5069867;28;20538;-70
2020/12/04 08:37:13;;;;;;;19.43;13.20;;;4.70;99.90;;;;;;5072462;28;21003;-71
2020/12/04 08:39:48;;;;;;;21.73;13.33;;;4.70;99.90;;;;;;5072932;28;20439;-70
2020/12/04 08:42:28;;;;;;;19.00;12.80;;;4.60;99.90;;;;;;5074773;28;20799;-70
2020/12/04 08:44:58;;;;;;;15.93;12.20;;;4.60;99.90;;;;;;5073792;28;20447;-71
2020/12/04 08:47:38;;;;;;;13.93;11.50;;;4.50;99.90;;;;;;5078361;28;20458;-71
2020/12/04 08:50:11;;;;;;;19.63;12.40;;;4.50;99.90;;;;;;5073289;28;20924;-71
2020/12/04 08:52:40;;;;;;;16.20;12.17;;;4.70;99.90;;;;;;5072476;28;20459;-70
2020/12/04 08:55:11;;;;;;;15.37;10.90;;;4.80;99.90;;;;;;5073143;28;20431;-70
2020/12/04 08:57:39;;;;;;;16.10;12.53;;;4.90;99.90;;;;;;5073269;28;20475;-70
2020/12/04 09:00:09;;;;;;;15.83;11.70;;;5.00;99.90;;;;;;5073397;28;20439;-71
2020/12/04 09:02:37;;;;;;;18.57;11.67;;;5.10;99.90;;;;;;5073272;28;20886;-70
2020/12/04 09:05:09;;;;;;;20.30;13.77;;;5.30;99.90;;;;;;5072864;28;20802;-70
2020/12/04 09:07:36;;;;;;;15.57;11.43;;;5.50;99.90;;;;;;5073673;28;20454;-70
2020/12/04 09:10:04;;;;;;;12.70;10.40;;;5.80;99.90;;;;;;5072930;28;20843;-70
2020/12/04 09:12:31;;;;;;;14.73;11.37;;;6.00;99.90;;;;;;5072929;28;20463;-71
2020/12/04 09:14:58;;;;;;;19.93;13.63;;;6.20;99.90;;;;;;5072893;28;20435;-70
2020/12/04 09:17:25;;;;;;;16.73;12.53;;;6.20;99.90;;;;;;5073068;28;20483;-71
2020/12/04 09:19:52;;;;;;;16.53;10.97;;;6.20;99.90;;;;;;5072894;28;20837;-71
2020/12/04 09:22:19;;;;;;;13.67;11.90;;;6.30;99.90;;;;;;5072579;28;20542;-70
2020/12/04 09:24:45;;;;;;;13.80;10.60;;;6.30;99.90;;;;;;5072806;28;20530;-70
2020/12/04 09:27:12;;;;;;;14.07;10.20;;;6.40;99.90;;;;;;5072640;28;20451;-70
2020/12/04 09:29:39;;;;;;;15.83;10.60;;;6.60;99.90;;;;;;5072727;28;20969;-71
2020/12/04 09:32:11;;;;;;;14.23;10.30;;;6.60;99.90;;;;;;5072399;28;21017;-71
2020/12/04 09:34:39;;;;;;;19.03;12.00;;;6.60;99.90;;;;;;5072556;28;20790;-71
2020/12/04 09:37:16;;;;;;;19.30;12.27;;;6.50;99.90;;;;;;5072596;28;20505;-71
2020/12/04 09:39:44;;;;;;;17.23;13.60;;;6.20;99.90;;;;;;5064933;28;20488;-71
2020/12/04 09:42:12;;;;;;;16.97;13.00;;;6.10;99.90;;;;;;5066007;28;20490;-70
2020/12/04 09:44:39;;;;;;;22.77;14.50;;;6.00;99.90;;;;;;5072139;28;20435;-70
2020/12/04 09:47:06;;;;;;;15.70;11.90;;;6.10;99.90;;;;;;5071952;28;20432;-71
2020/12/04 09:49:32;;;;;;;19.77;14.50;;;6.20;99.90;;;;;;5071239;28;20485;-70
2020/12/04 09:52:00;;;;;;;18.13;14.70;;;6.30;99.90;;;;;;5071150;28;20455;-70
2020/12/04 09:54:28;;;;;;;19.90;15.00;;;6.50;99.90;;;;;;5071288;28;20481;-71
2020/12/04 09:56:55;;;;;;;19.00;13.73;;;6.60;99.90;;;;;;5071387;28;20481;-70
2020/12/04 09:59:22;;;;;;;18.00;13.83;;;6.60;99.90;;;;;;5072691;28;20435;-71
2020/12/04 10:01:49;;;;;;;18.93;12.73;;;6.70;99.90;;;;;;5071710;28;20447;-71
2020/12/04 10:04:17;;;;;;;21.03;13.43;;;6.70;99.90;;;;;;5072067;28;20434;-70
2020/12/04 10:06:43;;;;;;;17.10;13.10;;;6.70;99.90;;;;;;5072023;28;20824;-70
2020/12/04 10:09:11;;;;;;;17.63;12.60;;;6.70;99.90;;;;;;5072097;28;20928;-70
2020/12/04 10:11:38;;;;;;;15.30;11.53;;;6.50;99.90;;;;;;5071654;28;20916;-71
2020/12/04 10:14:05;;;;;;;14.53;11.50;;;6.30;99.90;;;;;;5071832;28;20659;-70
2020/12/04 10:16:31;;;;;;;12.30;11.00;;;6.10;99.90;;;;;;5071726;28;20434;-71
2020/12/04 10:18:58;;;;;;;15.30;9.93;;;6.00;99.90;;;;;;5071988;28;20454;-71
2020/12/04 10:21:25;;;;;;;15.00;11.30;;;6.00;99.90;;;;;;5071476;28;20452;-70
2020/12/04 10:23:54;;;;;;;14.60;10.47;;;6.00;99.90;;;;;;5071703;28;20484;-70
2020/12/04 10:26:21;;;;;;;14.90;11.50;;;6.00;99.90;;;;;;5059881;28;20509;-70
2020/12/04 10:28:48;;;;;;;18.20;11.03;;;6.10;99.90;;;;;;5054137;28;20798;-70
2020/12/04 10:31:15;;;;;;;15.60;11.80;;;6.10;99.90;;;;;;5050902;28;20468;-70
2020/12/04 10:33:42;;;;;;;17.33;12.40;;;6.20;99.90;;;;;;5050532;28;20455;-70
2020/12/04 10:36:08;;;;;;;16.70;11.20;;;6.20;99.90;;;;;;5050995;28;20791;-70
2020/12/04 10:38:35;;;;;;;16.80;11.97;;;6.10;99.90;;;;;;5051079;28;20549;-70
2020/12/04 10:41:02;;;;;;;16.13;12.03;;;6.20;99.90;;;;;;5050863;28;20432;-70
2020/12/04 10:43:29;;;;;;;14.77;11.67;;;6.10;99.90;;;;;;5050380;28;20486;-70
2020/12/04 10:45:56;;;;;;;17.57;12.27;;;6.00;99.90;;;;;;5050380;28;20562;-70
2020/12/04 10:48:22;;;;;;;14.40;10.60;;;5.80;99.90;;;;;;5051060;28;20432;-70
2020/12/04 10:50:49;;;;;;;19.40;12.57;;;5.80;99.90;;;;;;5053025;28;20432;-70
2020/12/04 10:53:16;;;;;;;15.23;12.10;;;5.80;99.90;;;;;;5067024;28;20439;-70
2020/12/04 10:55:43;;;;;;;17.47;12.13;;;5.90;99.90;;;;;;5070705;28;20435;-70
2020/12/04 10:58:10;;;;;;;17.23;14.00;;;5.80;99.90;;;;;;5070168;28;20565;-70
2020/12/04 11:00:38;;;;;;;18.57;11.53;;;5.80;99.90;;;;;;5070260;28;20481;-70
2020/12/04 11:03:10;;;;;;;14.07;11.80;;;5.80;99.90;;;;;;5070572;28;20487;-70
2020/12/04 11:05:40;;;;;;;17.67;12.50;;;5.90;99.90;;;;;;5070906;28;20445;-70
2020/12/04 11:08:06;;;;;;;14.33;11.13;;;5.90;99.90;;;;;;5064880;28;20435;-70
2020/12/04 11:10:33;;;;;;;20.43;11.60;;;5.80;99.90;;;;;;5059388;28;20432;-70
2020/12/04 11:13:00;;;;;;;11.57;9.50;;;5.80;99.90;;;;;;5061994;28;20716;-70
2020/12/04 11:15:26;;;;;;;15.67;11.80;;;5.70;99.90;;;;;;5062888;28;20435;-70
2020/12/04 11:17:54;;;;;;;17.00;11.20;;;5.70;99.90;;;;;;5067106;28;20471;-70
2020/12/04 11:20:22;;;;;;;17.27;12.10;;;5.80;99.90;;;;;;5067554;28;20482;-70
2020/12/04 11:22:49;;;;;;;16.70;10.90;;;5.90;99.90;;;;;;5064348;28;20811;-70
2020/12/04 11:25:15;;;;;;;14.57;11.30;;;5.90;99.90;;;;;;5064495;28;20485;-70
2020/12/04 11:27:44;;;;;;;14.10;9.87;;;6.00;99.90;;;;;;5066136;28;20831;-70
2020/12/04 11:30:13;;;;;;;12.90;10.30;;;6.00;99.90;;;;;;5066379;28;20438;-70
2020/12/04 11:32:40;;;;;;;12.47;10.23;;;6.00;99.90;;;;;;5064528;28;20451;-70
2020/12/04 11:35:08;;;;;;;15.30;11.10;;;6.10;99.90;;;;;;5058329;28;20530;-70
2020/12/04 11:37:35;;;;;;;15.33;11.00;;;6.20;99.90;;;;;;5066763;28;20558;-70
2020/12/04 11:40:02;;;;;;;14.33;10.97;;;6.20;99.90;;;;;;5072949;28;20526;-70
2020/12/04 11:42:28;;;;;;;14.50;11.33;;;6.20;99.90;;;;;;5074050;28;20990;-70
2020/12/04 11:44:55;;;;;;;13.43;9.40;;;6.30;99.90;;;;;;5075113;28;20949;-70
2020/12/04 11:47:22;;;;;;;15.43;9.90;;;6.40;99.90;;;;;;5074913;28;20705;-70
2020/12/04 11:49:48;;;;;;;16.17;11.70;;;6.50;99.90;;;;;;5074772;28;20439;-70
2020/12/04 11:52:16;;;;;;;15.30;10.87;;;6.30;99.90;;;;;;5074257;28;20462;-70
2020/12/04 11:54:43;;;;;;;16.97;11.00;;;6.20;99.90;;;;;;5074674;28;20788;-70
2020/12/04 11:57:10;;;;;;;15.50;10.47;;;6.10;99.90;;;;;;5074677;28;20463;-70
2020/12/04 11:59:37;;;;;;;15.73;11.73;;;6.20;99.90;;;;;;5074664;28;20427;-71
2020/12/04 12:02:04;;;;;;;14.47;11.87;;;6.30;99.90;;;;;;5074373;28;20932;-70
2020/12/04 12:04:30;;;;;;;16.10;11.73;;;6.40;99.90;;;;;;5074607;28;20480;-70
2020/12/04 12:06:57;;;;;;;15.60;11.03;;;6.60;99.90;;;;;;5074282;28;20851;-70
2020/12/04 12:09:24;;;;;;;12.60;9.77;;;6.60;99.90;;;;;;5055779;28;20591;-70
2020/12/04 12:11:51;;;;;;;13.57;9.70;;;6.60;99.90;;;;;;5053999;28;20460;-70
2020/12/04 12:14:18;;;;;;;15.20;10.57;;;6.60;99.90;;;;;;5053907;28;20562;-70
2020/12/04 12:16:46;;;;;;;12.70;10.10;;;6.50;99.90;;;;;;5073654;28;20435;-70
2020/12/04 12:19:13;;;;;;;13.60;10.00;;;6.40;99.90;;;;;;5067840;28;20527;-70
2020/12/04 12:21:43;;;;;;;18.67;11.60;;;6.30;99.90;;;;;;5072261;28;20451;-70
2020/12/04 12:24:10;;;;;;;13.10;9.97;;;6.30;99.90;;;;;;5073959;28;20582;-70
2020/12/04 12:26:37;;;;;;;15.40;11.30;;;6.10;99.90;;;;;;5072860;28;20450;-69
2020/12/04 12:29:04;;;;;;;12.07;9.67;;;6.00;99.90;;;;;;5074073;28;20443;-70
2020/12/04 12:31:30;;;;;;;14.90;9.90;;;6.00;99.90;;;;;;5073716;28;20467;-70
2020/12/04 12:33:57;;;;;;;15.40;9.03;;;6.00;99.90;;;;;;5074244;28;20431;-70
2020/12/04 12:36:24;;;;;;;15.73;10.20;;;5.90;99.90;;;;;;5073868;28;20451;-70
2020/12/04 12:38:52;;;;;;;13.37;9.90;;;5.90;99.90;;;;;;5073792;28;20475;-70
2020/12/04 12:41:19;;;;;;;12.43;9.53;;;5.80;99.90;;;;;;5073750;28;20451;-69